Time;durP1;ratioP1;P1;durP2;ratioP2;P2;SDS_P1;SDS_P2;PMS_P1;PMS_P2;Temp;Humidity;BMP_temperature;BMP_pressure;BME280_temperature;BME280_humidity;BME280_pressure;Samples;Min_cycle;Max_cycle;Signal;HPM_P1;HPM_P2
2023/06/25 00:00:30;;;;;;;9.48;6.60;;;19.80;99.90;;;;;;5089619;28;20162;-71
2023/06/25 00:02:56;;;;;;;7.70;6.10;;;19.80;99.90;;;;;;5071810;28;20052;-71
2023/06/25 00:05:21;;;;;;;8.13;6.45;;;19.80;99.90;;;;;;5069520;28;20048;-71
2023/06/25 00:07:47;;;;;;;10.57;7.10;;;19.70;99.90;;;;;;5068133;28;20151;-71
2023/06/25 00:10:13;;;;;;;13.00;7.03;;;19.70;99.90;;;;;;5069440;28;20051;-71
2023/06/25 00:12:39;;;;;;;9.52;6.90;;;19.80;99.90;;;;;;5069450;28;20128;-71
2023/06/25 00:15:05;;;;;;;10.43;7.35;;;19.80;99.90;;;;;;5069205;28;20569;-71
2023/06/25 00:17:31;;;;;;;10.38;6.93;;;19.70;99.90;;;;;;5069249;28;20055;-71
2023/06/25 00:19:57;;;;;;;9.50;6.82;;;19.70;99.90;;;;;;5069450;28;20045;-71
2023/06/25 00:22:24;;;;;;;11.23;7.57;;;19.70;99.90;;;;;;5069270;28;20192;-71
2023/06/25 00:24:50;;;;;;;9.75;7.25;;;19.70;99.90;;;;;;5069112;28;20195;-70
2023/06/25 00:27:16;;;;;;;10.82;7.40;;;19.70;99.90;;;;;;5069340;28;20063;-71
2023/06/25 00:29:42;;;;;;;11.73;7.90;;;19.70;99.90;;;;;;5069324;28;20048;-71
2023/06/25 00:32:08;;;;;;;9.27;6.93;;;19.60;99.90;;;;;;5068051;28;20050;-71
2023/06/25 00:34:40;;;;;;;12.18;7.57;;;19.60;99.90;;;;;;5070458;28;20117;-71
2023/06/25 00:37:16;;;;;;;12.95;7.72;;;19.60;99.90;;;;;;5089042;28;20048;-71
2023/06/25 00:39:47;;;;;;;10.77;7.85;;;19.60;99.90;;;;;;5088959;28;20060;-71
2023/06/25 00:42:14;;;;;;;10.80;7.43;;;19.50;99.90;;;;;;5089238;28;20051;-71
2023/06/25 00:44:40;;;;;;;13.23;8.18;;;19.50;99.90;;;;;;5088904;28;20052;-71
2023/06/25 00:47:17;;;;;;;15.23;7.70;;;19.50;99.90;;;;;;5089155;28;20060;-71
2023/06/25 00:49:44;;;;;;;10.52;7.18;;;19.50;99.90;;;;;;5070861;28;20657;-71
2023/06/25 00:52:11;;;;;;;9.45;7.85;;;19.40;99.90;;;;;;5088960;28;20048;-71
2023/06/25 00:54:42;;;;;;;12.63;8.60;;;19.40;99.90;;;;;;5089983;28;20117;-71
2023/06/25 00:57:08;;;;;;;11.32;8.27;;;19.40;99.90;;;;;;5092974;28;20050;-71
2023/06/25 00:59:42;;;;;;;14.55;8.77;;;19.40;99.90;;;;;;5092901;28;20056;-71
2023/06/25 01:02:34;;;;;;;12.50;8.38;;;19.30;99.90;;;;;;5074318;28;20060;-71
2023/06/25 01:05:17;;;;;;;13.50;9.07;;;19.30;99.90;;;;;;5092874;28;20080;-71
2023/06/25 01:07:44;;;;;;;14.25;7.97;;;19.30;99.90;;;;;;5092759;28;20390;-71
2023/06/25 01:10:11;;;;;;;15.65;8.82;;;19.30;99.90;;;;;;5092713;28;20496;-71
2023/06/25 01:12:38;;;;;;;14.18;9.10;;;19.30;99.90;;;;;;5092616;28;20063;-71
2023/06/25 01:15:04;;;;;;;14.55;9.38;;;19.20;99.90;;;;;;5092372;28;20197;-71
2023/06/25 01:17:30;;;;;;;11.40;7.82;;;19.20;99.90;;;;;;5092747;28;20474;-71
2023/06/25 01:19:56;;;;;;;14.90;9.15;;;19.20;99.90;;;;;;5092267;28;20040;-72
2023/06/25 01:22:28;;;;;;;16.48;9.57;;;19.20;99.90;;;;;;5092196;28;20050;-71
2023/06/25 01:24:54;;;;;;;;;;;19.20;99.90;;;;;;5093094;28;20152;-71
2023/06/25 01:27:21;;;;;;;15.05;8.68;;;19.20;99.90;;;;;;5082963;28;20334;-71
2023/06/25 01:29:48;;;;;;;16.80;10.07;;;19.20;99.90;;;;;;5054896;28;20071;-71
2023/06/25 01:32:14;;;;;;;15.02;10.57;;;19.10;99.90;;;;;;5045546;28;20064;-71
2023/06/25 01:34:40;;;;;;;15.40;9.13;;;19.10;99.90;;;;;;5071794;28;20083;-71
2023/06/25 01:37:08;;;;;;;14.48;10.38;;;19.10;99.90;;;;;;5071760;28;20075;-72
2023/06/25 01:39:34;;;;;;;16.63;10.73;;;19.00;99.90;;;;;;5071820;28;20075;-71
2023/06/25 01:42:00;;;;;;;13.13;9.55;;;18.90;99.90;;;;;;5071838;28;20153;-71
2023/06/25 01:44:28;;;;;;;16.27;10.75;;;18.90;99.90;;;;;;5071830;28;20411;-71
2023/06/25 01:46:55;;;;;;;22.52;11.45;;;18.90;99.90;;;;;;5071744;28;20154;-71
2023/06/25 01:49:22;;;;;;;18.58;10.13;;;18.90;99.90;;;;;;5071545;28;20471;-71
2023/06/25 01:51:48;;;;;;;18.23;10.63;;;18.80;99.90;;;;;;5071587;28;20060;-71
2023/06/25 01:54:14;;;;;;;17.88;11.18;;;18.90;99.90;;;;;;5071974;28;20590;-71
2023/06/25 01:56:40;;;;;;;19.65;10.70;;;18.90;99.90;;;;;;5067441;28;20063;-71
2023/06/25 01:59:06;;;;;;;16.35;11.00;;;18.90;99.90;;;;;;5058753;28;20472;-71
2023/06/25 02:01:32;;;;;;;18.63;11.73;;;18.90;99.90;;;;;;5071784;28;20121;-71
2023/06/25 02:03:57;;;;;;;18.88;10.70;;;18.90;99.90;;;;;;5071075;28;20045;-71
2023/06/25 02:06:23;;;;;;;17.48;11.25;;;18.90;99.90;;;;;;5071043;28;20055;-71
2023/06/25 02:08:49;;;;;;;19.08;11.25;;;18.80;99.90;;;;;;5071303;28;20076;-71
2023/06/25 02:11:14;;;;;;;17.88;11.77;;;18.70;99.90;;;;;;5053508;28;20052;-71
2023/06/25 02:13:40;;;;;;;19.55;11.60;;;18.80;99.90;;;;;;5071298;28;20408;-71
2023/06/25 02:16:06;;;;;;;16.35;11.13;;;18.80;99.90;;;;;;5053234;28;20048;-71
2023/06/25 02:18:32;;;;;;;20.98;11.63;;;18.80;99.90;;;;;;5052911;28;20045;-71
2023/06/25 02:20:58;;;;;;;19.67;11.05;;;18.80;99.90;;;;;;5071460;28;20079;-71
2023/06/25 02:23:24;;;;;;;16.33;10.73;;;18.80;99.90;;;;;;5071083;28;20075;-71
2023/06/25 02:25:50;;;;;;;19.60;12.45;;;18.70;99.90;;;;;;5070720;28;20099;-71
2023/06/25 02:28:16;;;;;;;18.38;11.35;;;18.80;99.90;;;;;;5071024;28;20049;-71
2023/06/25 02:30:42;;;;;;;17.75;12.02;;;18.70;99.90;;;;;;5071438;28;20040;-71
2023/06/25 02:33:08;;;;;;;17.42;11.50;;;18.70;99.90;;;;;;5052925;28;20423;-71
2023/06/25 02:35:34;;;;;;;18.30;11.88;;;18.60;99.90;;;;;;5071121;28;20147;-71
2023/06/25 02:37:59;;;;;;;21.00;12.30;;;18.70;99.90;;;;;;5070859;28;20055;-71
2023/06/25 02:40:27;;;;;;;20.25;12.27;;;18.60;99.90;;;;;;5052781;28;20710;-71
2023/06/25 02:42:53;;;;;;;20.73;12.50;;;18.60;99.90;;;;;;5070761;28;20466;-71
2023/06/25 02:45:19;;;;;;;22.30;13.02;;;18.70;99.90;;;;;;5070727;28;20052;-71
2023/06/25 02:47:45;;;;;;;17.88;12.45;;;18.60;99.90;;;;;;5070332;28;20365;-71
2023/06/25 02:50:11;;;;;;;20.92;12.15;;;18.60;99.90;;;;;;5070372;28;20056;-71
2023/06/25 02:52:37;;;;;;;18.83;11.75;;;18.60;99.90;;;;;;5070469;28;20064;-71
2023/06/25 02:55:03;;;;;;;24.98;11.85;;;18.60;99.90;;;;;;5070487;28;20563;-71
2023/06/25 02:57:29;;;;;;;21.38;12.13;;;18.60;99.90;;;;;;5070318;28;20526;-71
2023/06/25 02:59:55;;;;;;;18.35;11.75;;;18.60;99.90;;;;;;5069980;28;20075;-71
2023/06/25 03:02:21;;;;;;;20.48;12.15;;;18.60;99.90;;;;;;5070309;28;20052;-71
2023/06/25 03:04:47;;;;;;;19.02;12.43;;;18.60;99.90;;;;;;5070288;28;20094;-71
2023/06/25 03:07:13;;;;;;;19.52;12.60;;;18.60;99.90;;;;;;5070135;28;20059;-71
2023/06/25 03:09:39;;;;;;;19.10;12.60;;;18.60;99.90;;;;;;5070126;28;20045;-71
2023/06/25 03:12:05;;;;;;;18.13;12.60;;;18.60;99.90;;;;;;5070308;28;20454;-71
2023/06/25 03:14:31;;;;;;;21.45;11.32;;;18.60;99.90;;;;;;5070420;28;20049;-71
2023/06/25 03:16:56;;;;;;;20.42;11.70;;;18.60;99.90;;;;;;5069679;28;20044;-71
2023/06/25 03:19:22;;;;;;;17.65;11.65;;;18.60;99.90;;;;;;5070367;28;20080;-71
2023/06/25 03:21:48;;;;;;;17.50;11.90;;;18.60;99.90;;;;;;5070034;28;20487;-71
2023/06/25 03:24:14;;;;;;;19.60;12.52;;;18.70;99.90;;;;;;5070123;28;20068;-71
2023/06/25 03:26:40;;;;;;;19.92;11.98;;;18.70;99.90;;;;;;5069777;28;20040;-71
2023/06/25 03:29:05;;;;;;;17.85;11.70;;;18.60;99.90;;;;;;5070067;28;20044;-71
2023/06/25 03:31:31;;;;;;;15.93;11.45;;;18.60;99.90;;;;;;5069708;28;20037;-71
2023/06/25 03:33:57;;;;;;;20.80;12.13;;;18.60;99.90;;;;;;5069857;28;20052;-71
2023/06/25 03:36:22;;;;;;;16.33;10.77;;;18.60;99.90;;;;;;5051610;28;20125;-71
2023/06/25 03:38:48;;;;;;;18.70;10.45;;;18.50;99.90;;;;;;5069760;28;20151;-71
2023/06/25 03:41:14;;;;;;;18.90;11.48;;;18.50;99.90;;;;;;5069880;28;20061;-71
2023/06/25 03:43:40;;;;;;;18.88;11.82;;;18.50;99.90;;;;;;5069484;28;20078;-71
2023/06/25 03:46:05;;;;;;;21.17;11.88;;;18.50;99.90;;;;;;5069305;28;20084;-71
2023/06/25 03:48:31;;;;;;;23.33;11.25;;;18.50;99.90;;;;;;5069575;28;20116;-71
2023/06/25 03:50:57;;;;;;;18.48;11.32;;;18.50;99.90;;;;;;5069692;28;20048;-71
2023/06/25 03:53:24;;;;;;;18.98;10.40;;;18.60;99.90;;;;;;5069292;28;20064;-71
2023/06/25 03:55:50;;;;;;;16.40;10.23;;;18.60;99.90;;;;;;5069422;28;20052;-71
2023/06/25 03:58:15;;;;;;;20.48;12.35;;;18.60;99.90;;;;;;5068898;28;20047;-71
2023/06/25 04:00:41;;;;;;;18.30;10.65;;;18.60;99.90;;;;;;5069220;28;20059;-71
2023/06/25 04:03:07;;;;;;;22.58;11.45;;;18.70;99.90;;;;;;5069316;28;20128;-71
2023/06/25 04:05:33;;;;;;;19.75;11.82;;;18.70;99.90;;;;;;5069614;28;20215;-71
2023/06/25 04:07:58;;;;;;;21.02;11.20;;;18.80;99.90;;;;;;5069913;28;20074;-71
2023/06/25 04:10:26;;;;;;;16.35;11.02;;;18.80;99.90;;;;;;5069667;28;20122;-71
2023/06/25 04:12:51;;;;;;;17.50;11.10;;;18.90;99.90;;;;;;5069292;28;20135;-71
2023/06/25 04:15:17;;;;;;;19.98;10.77;;;19.00;99.90;;;;;;5069392;28;20470;-71
2023/06/25 04:17:43;;;;;;;14.90;10.38;;;19.10;99.90;;;;;;5069499;28;20048;-71
2023/06/25 04:20:08;;;;;;;16.95;9.48;;;19.10;99.90;;;;;;5069221;28;20552;-71
2023/06/25 04:22:34;;;;;;;15.70;10.40;;;19.20;99.90;;;;;;5069244;28;20144;-71
2023/06/25 04:25:00;;;;;;;15.50;10.20;;;19.30;99.90;;;;;;5069548;28;20045;-71
2023/06/25 04:27:26;;;;;;;17.02;10.18;;;19.40;99.90;;;;;;5069235;28;20050;-71
2023/06/25 04:29:51;;;;;;;18.70;10.45;;;19.40;99.90;;;;;;5054222;28;20124;-71
2023/06/25 04:32:17;;;;;;;17.05;10.68;;;19.50;99.90;;;;;;5073535;28;20052;-71
2023/06/25 04:34:43;;;;;;;16.67;10.00;;;19.60;99.90;;;;;;5073570;28;20519;-71
2023/06/25 04:37:08;;;;;;;20.88;10.23;;;19.70;99.90;;;;;;5073013;28;20079;-71
2023/06/25 04:39:34;;;;;;;15.57;10.15;;;19.70;99.90;;;;;;5073054;28;20140;-71
2023/06/25 04:42:00;;;;;;;16.27;10.95;;;19.80;99.90;;;;;;5072892;28;20075;-71
2023/06/25 04:44:26;;;;;;;19.52;11.07;;;19.80;99.90;;;;;;5072862;28;20102;-72
2023/06/25 04:46:52;;;;;;;17.90;10.85;;;20.00;99.90;;;;;;5073009;28;20052;-71
2023/06/25 04:49:18;;;;;;;19.92;10.93;;;20.00;99.90;;;;;;5072801;28;20041;-71
2023/06/25 04:51:47;;;;;;;16.52;10.95;;;20.10;99.90;;;;;;5072686;28;20041;-72
2023/06/25 04:54:13;;;;;;;16.98;11.23;;;20.20;99.90;;;;;;5054707;28;20132;-72
2023/06/25 04:56:39;;;;;;;17.05;10.60;;;20.40;99.90;;;;;;5072697;28;20091;-71
2023/06/25 04:59:04;;;;;;;15.00;10.43;;;20.40;99.90;;;;;;5072648;28;20524;-71
2023/06/25 05:01:30;;;;;;;16.00;11.13;;;20.50;99.90;;;;;;5072885;28;20487;-71
2023/06/25 05:03:56;;;;;;;16.48;10.55;;;20.60;99.90;;;;;;5090812;28;20048;-71
2023/06/25 05:06:21;;;;;;;18.05;11.35;;;20.60;99.90;;;;;;5092530;28;20055;-71
2023/06/25 05:08:47;;;;;;;16.65;10.57;;;20.80;99.90;;;;;;5092737;28;20448;-71
2023/06/25 05:11:13;;;;;;;16.08;10.85;;;21.00;99.90;;;;;;5092713;28;20044;-71
2023/06/25 05:13:38;;;;;;;20.95;10.85;;;21.10;99.90;;;;;;5092597;28;20384;-72
2023/06/25 05:16:04;;;;;;;17.88;11.10;;;21.10;99.90;;;;;;5092639;28;20055;-71
2023/06/25 05:18:30;;;;;;;17.83;11.00;;;21.20;99.90;;;;;;5092539;28;20047;-70
2023/06/25 05:20:56;;;;;;;20.52;11.32;;;21.20;99.90;;;;;;5092628;28;20518;-71
2023/06/25 05:23:24;;;;;;;18.88;10.48;;;21.30;99.90;;;;;;5092510;28;20075;-72
2023/06/25 05:25:49;;;;;;;17.75;11.85;;;21.40;99.90;;;;;;5091221;28;20048;-71
2023/06/25 05:28:15;;;;;;;19.27;11.95;;;21.50;99.90;;;;;;5086842;28;20052;-71
2023/06/25 05:30:41;;;;;;;19.00;11.55;;;21.60;99.90;;;;;;5072033;28;20400;-71
2023/06/25 05:33:06;;;;;;;18.35;11.93;;;21.60;99.90;;;;;;5072063;28;20415;-71
2023/06/25 05:35:32;;;;;;;19.05;11.48;;;21.70;99.90;;;;;;5054136;28;20144;-71
2023/06/25 05:37:58;;;;;;;18.80;10.88;;;21.70;99.90;;;;;;5092285;28;20040;-71
2023/06/25 05:40:27;;;;;;;19.13;12.32;;;21.90;99.90;;;;;;5091560;28;20135;-71
2023/06/25 05:42:54;;;;;;;16.67;11.77;;;22.00;99.90;;;;;;5092245;28;20052;-72
2023/06/25 05:45:21;;;;;;;22.35;12.23;;;22.00;99.90;;;;;;5092278;28;20052;-71
2023/06/25 05:47:46;;;;;;;18.70;12.13;;;22.10;99.90;;;;;;5091666;28;20133;-71
2023/06/25 05:50:12;;;;;;;18.65;12.32;;;22.20;99.90;;;;;;5059355;28;20044;-72
2023/06/25 05:52:40;;;;;;;17.40;11.30;;;22.30;99.90;;;;;;5071844;28;20057;-71
2023/06/25 05:55:06;;;;;;;17.92;12.38;;;22.30;99.90;;;;;;5071745;28;20065;-72
2023/06/25 05:57:32;;;;;;;17.27;11.52;;;22.20;99.90;;;;;;5071970;28;20113;-71
2023/06/25 06:48:29;;;;;;;21.52;13.75;;;23.20;99.90;;;;;;5070701;28;20079;-71
2023/06/25 06:50:55;;;;;;;19.17;14.15;;;23.30;99.90;;;;;;5075526;28;20049;-72
2023/06/25 06:53:20;;;;;;;21.92;14.02;;;23.30;99.90;;;;;;5074363;28;20037;-71
2023/06/25 06:55:46;;;;;;;23.48;14.68;;;23.10;99.90;;;;;;5075211;28;20056;-71
2023/06/25 06:58:12;;;;;;;21.70;14.00;;;23.20;99.90;;;;;;5072235;28;20051;-71
2023/06/25 07:00:37;;;;;;;19.50;12.93;;;23.30;99.90;;;;;;5051604;28;20254;-71
2023/06/25 07:03:03;;;;;;;26.35;14.57;;;23.50;99.90;;;;;;5070479;28;20055;-71
2023/06/25 07:05:29;;;;;;;16.80;13.38;;;23.50;99.90;;;;;;5070275;28;20068;-71
2023/06/25 07:07:54;;;;;;;23.35;14.20;;;23.60;99.90;;;;;;5070042;28;20056;-71
2023/06/25 07:10:20;;;;;;;17.42;14.25;;;23.80;99.90;;;;;;5052230;28;20442;-71
2023/06/25 07:12:46;;;;;;;21.33;14.82;;;23.80;99.90;;;;;;5070402;28;20127;-71
2023/06/25 07:15:11;;;;;;;25.73;14.95;;;23.80;99.90;;;;;;5052056;28;20082;-71
2023/06/25 07:17:37;;;;;;;20.00;13.95;;;23.90;99.90;;;;;;5069895;28;20059;-71
2023/06/25 07:20:03;;;;;;;20.13;13.82;;;24.00;99.90;;;;;;5070111;28;20131;-71
2023/06/25 07:22:29;;;;;;;17.23;12.40;;;24.10;99.90;;;;;;5070024;28;20049;-71
2023/06/25 07:24:54;;;;;;;18.20;11.85;;;24.20;99.90;;;;;;5069948;28;20090;-72
2023/06/25 07:27:20;;;;;;;18.15;12.18;;;24.30;99.90;;;;;;5069833;28;20132;-72
2023/06/25 07:29:46;;;;;;;19.58;13.95;;;24.40;99.90;;;;;;5069900;28;20446;-71
2023/06/25 07:32:11;;;;;;;21.05;13.65;;;24.50;99.90;;;;;;5070079;28;20082;-71
2023/06/25 07:34:37;;;;;;;16.17;11.32;;;24.60;99.90;;;;;;5070027;28;20411;-72
2023/06/25 07:37:03;;;;;;;16.92;11.95;;;24.70;99.90;;;;;;5069751;28;20044;-72
2023/06/25 07:39:30;;;;;;;15.55;11.35;;;24.70;99.90;;;;;;5069975;28;20443;-71
2023/06/25 07:41:59;;;;;;;15.27;11.75;;;24.80;99.90;;;;;;5051845;28;20053;-71
2023/06/25 07:44:25;;;;;;;19.00;13.50;;;24.90;99.90;;;;;;5069551;28;20127;-71
2023/06/25 07:46:51;;;;;;;16.55;13.13;;;24.80;99.90;;;;;;5069018;28;20162;-72
2023/06/25 07:49:17;;;;;;;19.08;13.02;;;24.70;99.90;;;;;;5069430;28;20044;-71
2023/06/25 07:51:45;;;;;;;16.13;11.52;;;24.70;99.90;;;;;;5069439;28;20051;-71
2023/06/25 07:54:12;;;;;;;18.90;11.20;;;24.90;99.90;;;;;;5069579;28;20500;-72
2023/06/25 07:56:38;;;;;;;17.67;11.00;;;25.00;99.90;;;;;;5069564;28;20514;-72
2023/06/25 07:59:03;;;;;;;16.42;10.77;;;25.10;99.90;;;;;;5069471;28;20048;-72
2023/06/25 08:01:29;;;;;;;15.45;11.45;;;25.20;99.90;;;;;;5069348;28;20101;-73
2023/06/25 08:03:56;;;;;;;15.13;11.60;;;25.30;99.90;;;;;;5069082;28;20060;-71
2023/06/25 08:06:21;;;;;;;14.13;9.35;;;25.30;99.90;;;;;;5069280;28;20048;-71
2023/06/25 08:08:47;;;;;;;12.43;9.68;;;25.50;99.90;;;;;;5069662;28;20317;-71
2023/06/25 08:11:13;;;;;;;13.55;10.82;;;25.60;99.90;;;;;;5069557;28;20158;-72
2023/06/25 08:13:39;;;;;;;13.40;9.75;;;25.70;99.90;;;;;;5069267;28;20491;-71
2023/06/25 08:16:04;;;;;;;14.13;9.38;;;25.80;99.90;;;;;;5069741;28;20063;-71
2023/06/25 08:18:30;;;;;;;15.43;9.68;;;25.90;99.90;;;;;;5070343;28;20101;-70
2023/06/25 08:20:56;;;;;;;11.52;9.32;;;26.00;99.90;;;;;;5069569;28;20053;-71
2023/06/25 08:23:22;;;;;;;11.05;8.40;;;26.00;99.90;;;;;;5069584;28;20054;-71
2023/06/25 08:25:47;;;;;;;13.38;7.50;;;26.10;99.90;;;;;;5069353;28;20060;-71
2023/06/25 08:28:13;;;;;;;10.02;8.48;;;26.20;99.90;;;;;;5069268;28;20052;-70
2023/06/25 08:30:39;;;;;;;10.18;7.32;;;26.20;99.90;;;;;;5069310;28;20052;-70
2023/06/25 08:33:05;;;;;;;11.60;7.80;;;26.20;99.90;;;;;;5068784;28;20044;-71
2023/06/25 08:35:31;;;;;;;10.18;6.47;;;26.40;99.90;;;;;;5068700;28;20114;-71
2023/06/25 08:37:57;;;;;;;8.25;5.70;;;26.40;99.90;;;;;;5068738;28;20041;-71
2023/06/25 08:40:25;;;;;;;7.65;5.78;;;26.50;99.90;;;;;;5068349;28;20055;-71
2023/06/25 08:42:51;;;;;;;10.55;6.72;;;26.60;99.90;;;;;;5068471;28;20146;-70
2023/06/25 08:45:17;;;;;;;7.15;6.30;;;26.60;99.90;;;;;;5059804;28;20136;-72
2023/06/25 08:47:45;;;;;;;10.68;6.80;;;26.80;99.90;;;;;;5054398;28;20052;-71
2023/06/25 08:50:11;;;;;;;10.02;6.82;;;26.90;99.90;;;;;;5054993;28;20048;-71
2023/06/25 08:52:38;;;;;;;7.20;4.45;;;27.00;99.90;;;;;;5068945;28;20106;-72
2023/06/25 08:55:08;;;;;;;7.60;4.40;;;26.90;99.90;;;;;;5069018;28;20041;-72
2023/06/25 08:57:34;;;;;;;6.93;5.13;;;27.00;99.90;;;;;;5048602;28;20118;-73
2023/06/25 08:59:59;;;;;;;7.78;4.78;;;27.20;99.90;;;;;;5068667;28;20135;-70
2023/06/25 09:02:27;;;;;;;7.65;5.00;;;27.30;99.90;;;;;;5068416;28;20128;-70
2023/06/25 09:05:01;;;;;;;7.70;3.90;;;27.30;99.90;;;;;;5068831;28;20053;-70
2023/06/25 09:07:27;;;;;;;5.53;4.47;;;27.50;99.50;;;;;;5061751;28;20053;-70
2023/06/25 09:09:55;;;;;;;7.47;4.07;;;27.30;99.70;;;;;;5048870;28;20764;-70
2023/06/25 09:12:24;;;;;;;6.70;4.75;;;27.50;99.60;;;;;;5048817;28;20045;-70
2023/06/25 09:14:50;;;;;;;7.97;4.65;;;27.50;99.70;;;;;;5048903;28;20057;-70
2023/06/25 09:17:23;;;;;;;8.95;4.72;;;27.50;99.00;;;;;;5052479;28;20430;-70
2023/06/25 09:19:48;;;;;;;6.90;4.07;;;27.60;98.20;;;;;;5052880;28;20124;-70
2023/06/25 09:22:14;;;;;;;7.82;5.18;;;27.50;99.10;;;;;;5053343;28;20068;-69
2023/06/25 09:24:47;;;;;;;6.18;4.15;;;27.30;98.20;;;;;;5053239;28;20052;-70
2023/06/25 09:27:12;;;;;;;5.63;4.07;;;27.50;98.30;;;;;;5035054;28;20076;-70
2023/06/25 09:29:39;;;;;;;6.93;4.22;;;27.50;97.90;;;;;;5034732;28;20083;-70
2023/06/25 09:32:09;;;;;;;6.30;4.60;;;27.60;98.60;;;;;;5052503;28;20049;-70
2023/06/25 09:34:35;;;;;;;6.60;4.53;;;27.70;97.80;;;;;;5034661;28;20132;-70
2023/06/25 09:37:03;;;;;;;6.72;4.60;;;27.70;98.30;;;;;;5052521;28;20435;-70
2023/06/25 09:39:30;;;;;;;7.38;4.55;;;27.80;98.40;;;;;;5071589;28;20075;-70
2023/06/25 09:41:56;;;;;;;8.52;5.18;;;27.80;98.20;;;;;;5072778;28;20471;-70
2023/06/25 09:44:22;;;;;;;7.88;5.03;;;27.80;98.00;;;;;;5072195;28;20041;-70
2023/06/25 09:46:52;;;;;;;6.65;4.35;;;27.90;97.70;;;;;;5059799;28;20053;-69
2023/06/25 09:49:20;;;;;;;7.07;4.90;;;27.90;98.10;;;;;;5065986;28;20045;-70
2023/06/25 09:52:08;;;;;;;7.63;4.63;;;27.90;97.50;;;;;;5052545;28;20132;-70
2023/06/25 09:54:35;;;;;;;8.15;4.15;;;27.90;98.20;;;;;;5050212;28;20190;-70
2023/06/25 09:57:05;;;;;;;7.60;4.53;;;28.10;98.30;;;;;;5072208;28;20052;-70
2023/06/25 09:59:31;;;;;;;7.07;4.50;;;28.00;98.20;;;;;;5072551;28;20383;-70
2023/06/25 10:01:57;;;;;;;7.00;4.63;;;28.10;98.00;;;;;;5067511;28;20047;-70
2023/06/25 10:04:23;;;;;;;7.22;4.75;;;28.30;97.10;;;;;;5052466;28;20055;-70
2023/06/25 10:06:49;;;;;;;6.95;4.75;;;28.20;97.70;;;;;;5052311;28;20750;-71
2023/06/25 10:09:15;;;;;;;8.95;5.45;;;28.20;96.90;;;;;;5052131;28;20041;-70
2023/06/25 10:11:52;;;;;;;12.57;4.78;;;28.30;96.80;;;;;;5052274;28;20041;-70
2023/06/25 10:14:17;;;;;;;7.97;4.88;;;28.20;95.70;;;;;;5018155;28;20095;-71
2023/06/25 10:16:54;;;;;;;7.22;4.90;;;28.30;96.70;;;;;;5069945;28;20515;-71
2023/06/25 10:19:22;;;;;;;10.75;4.75;;;28.30;96.40;;;;;;5054138;28;20458;-70
2023/06/25 10:22:07;;;;;;;7.30;4.50;;;28.30;97.10;;;;;;5071854;28;20067;-70
2023/06/25 10:24:46;;;;;;;5.53;3.70;;;28.40;97.00;;;;;;5071737;28;20056;-71
2023/06/25 10:27:21;;;;;;;6.32;4.65;;;28.60;96.40;;;;;;5071657;28;20384;-70
2023/06/25 10:29:47;;;;;;;9.85;4.70;;;28.50;95.50;;;;;;5069077;28;20045;-70
2023/06/25 10:32:13;;;;;;;10.02;4.63;;;28.50;95.50;;;;;;5051407;28;20092;-71
2023/06/25 10:34:39;;;;;;;9.43;5.20;;;28.40;93.70;;;;;;5051547;28;20080;-70
2023/06/25 10:37:07;;;;;;;8.18;5.18;;;28.50;94.00;;;;;;5033454;28;20061;-71
2023/06/25 10:39:40;;;;;;;7.25;4.35;;;28.50;94.20;;;;;;5051483;28;20041;-70
2023/06/25 10:42:07;;;;;;;5.85;4.22;;;28.60;93.90;;;;;;5051162;28;20049;-70
2023/06/25 10:44:34;;;;;;;6.10;3.83;;;28.60;94.60;;;;;;5051325;28;20106;-70
2023/06/25 10:47:07;;;;;;;9.38;4.10;;;28.60;94.90;;;;;;5050983;28;20045;-70
2023/06/25 10:49:34;;;;;;;6.63;3.95;;;28.80;95.30;;;;;;5029803;28;20061;-70
2023/06/25 10:52:02;;;;;;;5.78;3.90;;;28.90;94.70;;;;;;5031488;28;20053;-70
2023/06/25 10:54:27;;;;;;;6.18;3.88;;;28.80;94.60;;;;;;5030066;28;20080;-70
2023/06/25 10:57:04;;;;;;;5.70;3.83;;;28.80;94.90;;;;;;5031067;28;20092;-70
2023/06/25 10:59:29;;;;;;;6.35;3.95;;;28.80;94.80;;;;;;5030651;28;20061;-71
2023/06/25 11:01:55;;;;;;;9.60;3.72;;;28.90;94.80;;;;;;5031089;28;20071;-71
2023/06/25 11:04:21;;;;;;;5.95;3.75;;;28.90;95.20;;;;;;5031312;28;20548;-70
2023/06/25 11:06:47;;;;;;;5.10;4.15;;;29.00;95.60;;;;;;5030491;28;20045;-70
2023/06/25 11:09:13;;;;;;;5.95;3.50;;;29.10;95.10;;;;;;5031026;28;20093;-70
2023/06/25 11:11:38;;;;;;;8.27;4.65;;;29.00;95.10;;;;;;5030993;28;20080;-70
2023/06/25 11:14:04;;;;;;;9.13;4.45;;;29.00;95.60;;;;;;5030559;28;20538;-70
2023/06/25 11:16:30;;;;;;;10.15;4.35;;;29.20;96.00;;;;;;5030736;28;20515;-70
2023/06/25 11:18:55;;;;;;;8.45;4.95;;;29.10;96.00;;;;;;5029350;28;20050;-70
2023/06/25 11:21:21;;;;;;;6.70;4.18;;;29.00;95.50;;;;;;5030813;28;20161;-70
2023/06/25 11:23:47;;;;;;;7.20;4.30;;;29.00;95.60;;;;;;5030950;28;20048;-71
2023/06/25 11:26:17;;;;;;;7.38;4.53;;;29.10;95.20;;;;;;5029084;28;20150;-72
2023/06/25 11:28:42;;;;;;;4.70;3.95;;;29.00;95.20;;;;;;5030461;28;20060;-72
2023/06/25 11:31:08;;;;;;;5.72;4.28;;;29.10;95.50;;;;;;5031179;28;20361;-72
2023/06/25 11:33:34;;;;;;;8.85;4.47;;;29.20;95.70;;;;;;5030222;28;20088;-71
2023/06/25 11:36:10;;;;;;;5.32;3.75;;;29.10;94.90;;;;;;5030684;28;20060;-72
2023/06/25 11:38:36;;;;;;;7.10;4.30;;;29.10;94.80;;;;;;5028891;28;20052;-72
2023/06/25 11:41:02;;;;;;;5.00;4.03;;;29.10;95.30;;;;;;5030458;28;20065;-72
2023/06/25 11:43:28;;;;;;;10.57;4.68;;;29.20;95.10;;;;;;5030532;28;20049;-72
2023/06/25 11:46:02;;;;;;;6.22;4.32;;;29.20;95.50;;;;;;5030380;28;20174;-72
2023/06/25 11:48:29;;;;;;;8.50;4.70;;;29.20;95.50;;;;;;5040781;28;20060;-72
2023/06/25 11:51:05;;;;;;;4.72;3.88;;;29.30;95.70;;;;;;5050084;28;20053;-72
2023/06/25 11:53:31;;;;;;;5.15;3.97;;;29.40;95.90;;;;;;5050178;28;20045;-72
2023/06/25 11:55:57;;;;;;;5.03;3.90;;;29.30;95.90;;;;;;5050510;28;20129;-72
2023/06/25 11:58:22;;;;;;;6.07;4.22;;;29.50;95.80;;;;;;5050194;28;20084;-71
2023/06/25 12:00:48;;;;;;;4.43;3.85;;;29.40;95.70;;;;;;5049789;28;20040;-71
2023/06/25 12:03:14;;;;;;;5.07;3.45;;;29.60;96.30;;;;;;5050305;28;20049;-71
2023/06/25 12:05:39;;;;;;;7.68;3.88;;;29.50;95.40;;;;;;5050447;28;20076;-71
2023/06/25 12:08:05;;;;;;;5.78;4.10;;;29.60;95.30;;;;;;5052369;28;20056;-71
2023/06/25 12:10:31;;;;;;;5.97;4.20;;;29.60;95.30;;;;;;5056121;28;20040;-71
2023/06/25 12:12:56;;;;;;;4.78;3.80;;;29.70;95.30;;;;;;5078179;28;20036;-71
2023/06/25 12:15:22;;;;;;;7.13;4.07;;;29.70;95.60;;;;;;5050620;28;20044;-72
2023/06/25 12:17:48;;;;;;;7.68;4.05;;;29.80;94.50;;;;;;5069194;28;20040;-72
2023/06/25 12:20:14;;;;;;;6.10;4.43;;;29.80;95.00;;;;;;5069318;28;20056;-72
2023/06/25 12:22:40;;;;;;;8.30;4.78;;;29.80;94.80;;;;;;5069025;28;20403;-72
2023/06/25 12:25:06;;;;;;;5.95;4.32;;;29.70;95.10;;;;;;5069333;28;20040;-70
2023/06/25 12:27:31;;;;;;;7.22;4.18;;;29.70;95.00;;;;;;5068876;28;20048;-70
2023/06/25 12:29:57;;;;;;;6.05;4.15;;;29.80;94.90;;;;;;5069206;28;20083;-70
2023/06/25 12:32:23;;;;;;;6.95;3.90;;;29.90;95.30;;;;;;5067175;28;20123;-70
2023/06/25 12:34:48;;;;;;;4.93;4.20;;;29.90;95.00;;;;;;5069279;28;20052;-69
2023/06/25 12:37:14;;;;;;;5.35;4.00;;;29.90;95.10;;;;;;5069396;28;20048;-72
2023/06/25 12:39:40;;;;;;;7.35;4.50;;;29.90;95.00;;;;;;5069300;28;20055;-71
2023/06/25 12:42:06;;;;;;;5.75;4.18;;;29.90;95.30;;;;;;5068183;28;20055;-71
2023/06/25 12:44:32;;;;;;;6.20;4.05;;;29.90;95.30;;;;;;5068894;28;20041;-71
2023/06/25 12:46:58;;;;;;;8.60;4.00;;;30.00;95.40;;;;;;5050842;28;20052;-71
2023/06/25 12:49:23;;;;;;;15.15;5.00;;;30.00;95.40;;;;;;5054219;28;20049;-72
2023/06/25 12:51:49;;;;;;;8.40;4.13;;;29.90;95.20;;;;;;5052548;28;20049;-71
2023/06/25 12:54:15;;;;;;;6.55;4.43;;;29.90;95.10;;;;;;5053794;28;20071;-71
2023/06/25 12:56:41;;;;;;;5.97;3.97;;;30.00;94.80;;;;;;5053140;28;20081;-71
2023/06/25 12:59:06;;;;;;;4.75;4.13;;;30.10;95.00;;;;;;5035432;28;20072;-70
2023/06/25 13:01:32;;;;;;;6.47;4.32;;;30.10;95.40;;;;;;5053318;28;20052;-71
2023/06/25 13:03:58;;;;;;;7.40;4.57;;;30.10;95.20;;;;;;5053523;28;20175;-71
2023/06/25 13:06:23;;;;;;;5.00;3.85;;;30.10;95.00;;;;;;5053159;28;20144;-71
2023/06/25 13:08:49;;;;;;;4.72;3.63;;;30.10;94.80;;;;;;5052489;28;20048;-71
2023/06/25 13:11:15;;;;;;;5.95;3.97;;;30.10;94.60;;;;;;5052816;28;20049;-71
2023/06/25 13:13:41;;;;;;;4.53;3.60;;;30.20;94.70;;;;;;5053125;28;20037;-70
2023/06/25 13:16:07;;;;;;;7.82;4.38;;;30.10;94.70;;;;;;5053264;28;20045;-71
2023/06/25 13:18:34;;;;;;;6.00;3.88;;;30.00;94.60;;;;;;5053203;28;20198;-71
2023/06/25 13:20:59;;;;;;;5.32;4.00;;;30.20;94.40;;;;;;5053173;28;20064;-71